Time;durP1;ratioP1;P1;durP2;ratioP2;P2;SDS_P1;SDS_P2;PMS_P1;PMS_P2;Temp;Humidity;BMP_temperature;BMP_pressure;BME280_temperature;BME280_humidity;BME280_pressure;Samples;Min_cycle;Max_cycle;Signal;HPM_P1;HPM_P2
2023/06/18 00:01:33;;;;;;;6.13;5.63;;;;;;;14.48;100.00;99222.75;5108700;28;20204;-78
2023/06/18 00:03:59;;;;;;;5.93;5.37;;;;;;;14.45;100.00;99222.44;5108899;28;20626;-78
2023/06/18 00:06:26;;;;;;;5.87;5.37;;;;;;;14.40;100.00;99203.53;5108835;28;20591;-77
2023/06/18 00:08:53;;;;;;;5.43;5.00;;;;;;;14.34;100.00;99207.19;5101493;28;20739;-77
2023/06/18 00:11:19;;;;;;;6.10;5.57;;;;;;;14.32;100.00;99209.34;5105560;28;20670;-76
2023/06/18 00:13:46;;;;;;;6.07;5.57;;;;;;;14.34;100.00;99209.88;5110028;28;20188;-77
2023/06/18 00:16:13;;;;;;;5.53;5.13;;;;;;;14.26;100.00;99211.16;5106885;28;20211;-77
2023/06/18 00:18:39;;;;;;;5.90;5.40;;;;;;;14.28;100.00;99206.31;5112808;28;20195;-78
2023/06/18 00:21:07;;;;;;;5.87;5.33;;;;;;;14.20;100.00;99204.09;5110204;28;20196;-77
2023/06/18 00:23:34;;;;;;;5.53;5.03;;;;;;;14.13;100.00;99205.38;5111209;28;20596;-77
2023/06/18 00:26:01;;;;;;;5.63;5.13;;;;;;;14.15;100.00;99206.72;5114392;28;20253;-77
2023/06/18 00:28:31;;;;;;;5.90;5.40;;;;;;;14.10;100.00;99198.59;5104818;28;20552;-77
2023/06/18 00:30:58;;;;;;;5.60;5.10;;;;;;;14.04;100.00;99207.69;5094934;28;20282;-77
2023/06/18 00:33:25;;;;;;;6.00;5.13;;;;;;;14.01;100.00;99206.31;5111325;28;20188;-77
2023/06/18 00:35:56;;;;;;;5.53;5.10;;;;;;;13.98;100.00;99203.31;5090789;28;20195;-77
2023/06/18 00:38:26;;;;;;;6.07;4.90;;;;;;;13.93;100.00;99209.44;5091096;28;20188;-77
2023/06/18 00:40:53;;;;;;;5.67;5.17;;;;;;;13.93;100.00;99205.94;5099996;28;20192;-78
2023/06/18 00:43:20;;;;;;;5.30;4.80;;;;;;;13.88;100.00;99209.38;5114133;28;20218;-77
2023/06/18 00:45:47;;;;;;;5.43;4.93;;;;;;;13.89;100.00;99205.63;5113973;28;20203;-77
2023/06/18 00:48:14;;;;;;;5.97;5.37;;;;;;;13.87;100.00;99199.66;5112688;28;20203;-77
2023/06/18 00:50:41;;;;;;;6.10;5.60;;;;;;;13.86;100.00;99208.00;5112625;28;20349;-77
2023/06/18 00:53:09;;;;;;;5.97;5.47;;;;;;;13.84;100.00;99202.88;5113899;28;20249;-76
2023/06/18 00:55:37;;;;;;;5.50;5.00;;;;;;;13.78;100.00;99198.47;5076030;28;20212;-77
2023/06/18 00:58:05;;;;;;;5.73;5.23;;;;;;;13.74;100.00;99202.75;5111524;28;20284;-77
2023/06/18 01:00:34;;;;;;;5.77;5.27;;;;;;;13.77;100.00;99202.22;5092542;28;20583;-77
2023/06/18 01:03:04;;;;;;;5.53;5.13;;;;;;;13.77;100.00;99199.53;5090091;28;20285;-76
2023/06/18 01:05:31;;;;;;;6.07;5.47;;;;;;;13.75;100.00;99200.88;5055267;28;20261;-77
2023/06/18 01:08:00;;;;;;;5.70;5.20;;;;;;;13.74;100.00;99202.75;5070609;28;20200;-77
2023/06/18 01:10:29;;;;;;;5.93;5.43;;;;;;;13.73;100.00;99200.28;5066041;28;20205;-78
2023/06/18 01:12:58;;;;;;;5.40;5.00;;;;;;;13.70;100.00;99192.72;5080065;28;20225;-77
2023/06/18 01:15:27;;;;;;;5.30;4.80;;;;;;;13.66;100.00;99187.84;5064250;28;20200;-77
2023/06/18 01:17:57;;;;;;;5.27;4.87;;;;;;;13.64;100.00;99203.44;5079538;28;20224;-76
2023/06/18 01:20:27;;;;;;;5.70;4.97;;;;;;;13.60;100.00;99199.59;5079673;28;20193;-77
2023/06/18 01:23:02;;;;;;;5.60;5.10;;;;;;;13.58;100.00;99201.72;5077087;28;20205;-77
2023/06/18 01:25:32;;;;;;;5.70;5.20;;;;;;;13.54;100.00;99194.41;5075073;28;20225;-77
2023/06/18 01:28:07;;;;;;;5.80;4.80;;;;;;;13.51;100.00;99197.59;5082055;28;20696;-77
2023/06/18 01:30:39;;;;;;;5.40;4.90;;;;;;;13.45;100.00;99191.31;5080408;28;20669;-77
2023/06/18 01:33:12;;;;;;;6.43;5.13;;;;;;;13.39;100.00;99191.53;5071566;28;20196;-77
2023/06/18 01:35:39;;;;;;;6.43;5.67;;;;;;;13.28;100.00;99190.56;5075459;28;20717;-77
2023/06/18 01:38:32;;;;;;;5.77;5.27;;;;;;;13.19;100.00;99198.25;5081045;28;20215;-77
2023/06/18 01:41:16;;;;;;;5.77;5.27;;;;;;;13.15;100.00;99193.59;5090411;28;20192;-77
2023/06/18 01:43:47;;;;;;;5.90;5.30;;;;;;;13.08;100.00;99190.22;5090882;28;20723;-77
2023/06/18 01:46:16;;;;;;;6.37;5.77;;;;;;;13.04;100.00;99184.53;5088560;28;20233;-76
2023/06/18 01:48:51;;;;;;;5.57;5.17;;;;;;;13.02;100.00;99189.31;5085533;28;20210;-78
2023/06/18 01:51:19;;;;;;;6.33;5.83;;;;;;;12.99;100.00;99195.19;5092376;28;20216;-77
2023/06/18 01:53:47;;;;;;;7.57;6.87;;;;;;;12.96;100.00;99198.41;5089572;28;20222;-76
2023/06/18 01:56:14;;;;;;;6.77;6.23;;;;;;;12.92;100.00;99199.94;5091656;28;20221;-77
2023/06/18 01:58:42;;;;;;;6.33;5.83;;;;;;;12.90;100.00;99204.75;5090538;28;20198;-77
2023/06/18 02:01:11;;;;;;;7.00;6.40;;;;;;;12.89;100.00;99199.59;5067043;28;20215;-77
2023/06/18 02:03:39;;;;;;;6.70;6.10;;;;;;;12.88;100.00;99204.16;5083816;28;20371;-77
2023/06/18 02:06:06;;;;;;;7.50;6.80;;;;;;;12.89;100.00;99202.28;5089131;28;20661;-76
2023/06/18 02:08:33;;;;;;;7.13;6.53;;;;;;;12.83;100.00;99203.28;5087680;28;20192;-76
2023/06/18 02:11:02;;;;;;;7.63;7.00;;;;;;;12.79;100.00;99198.38;5078262;28;20254;-77
2023/06/18 02:13:28;;;;;;;7.17;6.60;;;;;;;12.75;100.00;99199.09;5062804;28;20244;-76
2023/06/18 02:15:55;;;;;;;6.60;6.10;;;;;;;12.70;100.00;99189.09;5076833;28;20206;-78
2023/06/18 02:18:22;;;;;;;7.57;6.77;;;;;;;12.73;100.00;99196.69;5083105;28;20214;-78
2023/06/18 02:20:51;;;;;;;7.17;6.47;;;;;;;12.74;100.00;99190.22;5075622;28;20196;-78
2023/06/18 02:23:18;;;;;;;7.07;6.47;;;;;;;12.73;100.00;99188.63;5083314;28;20185;-77
2023/06/18 02:25:45;;;;;;;6.77;6.17;;;;;;;12.70;100.00;99193.66;5082926;28;20199;-77
2023/06/18 02:28:12;;;;;;;7.33;6.63;;;;;;;12.68;100.00;99190.41;5081052;28;20211;-77
2023/06/18 02:30:38;;;;;;;7.17;6.47;;;;;;;12.65;100.00;99191.69;5077839;28;20195;-77
2023/06/18 02:33:10;;;;;;;6.77;6.07;;;;;;;12.65;100.00;99198.94;5079326;28;20197;-77
2023/06/18 02:35:38;;;;;;;6.63;5.97;;;;;;;12.62;100.00;99196.75;5080834;28;20204;-78
2023/06/18 02:38:05;;;;;;;6.70;6.10;;;;;;;12.60;100.00;99199.66;5083226;28;20229;-77
2023/06/18 02:40:31;;;;;;;7.07;6.47;;;;;;;12.58;100.00;99200.97;5087036;28;20276;-79
2023/06/18 02:42:58;;;;;;;6.73;6.13;;;;;;;12.61;100.00;99198.63;5078150;28;20222;-76
2023/06/18 02:45:26;;;;;;;6.90;6.30;;;;;;;12.60;100.00;99201.53;5084393;28;20660;-78
2023/06/18 02:47:52;;;;;;;6.77;6.23;;;;;;;12.60;100.00;99207.72;5078242;28;20286;-78
2023/06/18 02:50:20;;;;;;;6.83;6.00;;;;;;;12.56;100.00;99206.59;5091158;28;20194;-76
2023/06/18 02:52:48;;;;;;;6.90;6.30;;;;;;;12.50;100.00;99204.88;5088275;28;20576;-77
2023/06/18 02:55:15;;;;;;;6.30;5.80;;;;;;;12.48;100.00;99207.00;5073516;28;20668;-78
2023/06/18 02:57:42;;;;;;;6.20;5.70;;;;;;;12.53;100.00;99208.94;5074766;28;20285;-77
2023/06/18 03:00:12;;;;;;;6.10;5.50;;;;;;;12.52;100.00;99215.38;5094052;28;20196;-76
2023/06/18 03:02:43;;;;;;;6.33;5.70;;;;;;;12.54;100.00;99213.28;5093621;28;20250;-77
2023/06/18 03:05:15;;;;;;;6.27;5.77;;;;;;;12.51;100.00;99209.19;5078124;28;20656;-76
2023/06/18 03:07:42;;;;;;;6.50;5.97;;;;;;;12.53;100.00;99208.94;5094099;28;20221;-77
2023/06/18 03:10:10;;;;;;;5.77;5.17;;;;;;;12.52;100.00;99212.69;5089067;28;20197;-77
2023/06/18 03:12:37;;;;;;;6.30;5.80;;;;;;;12.51;100.00;99214.56;5077288;28;20294;-78
2023/06/18 03:15:17;;;;;;;6.27;5.67;;;;;;;12.54;100.00;99219.47;5091807;28;20210;-77
2023/06/18 03:17:44;;;;;;;6.50;5.90;;;;;;;12.58;100.00;99209.84;5087392;28;20271;-77
2023/06/18 03:20:11;;;;;;;6.77;6.00;;;;;;;12.64;100.00;99205.41;5083648;28;20199;-76
2023/06/18 03:22:38;;;;;;;6.57;6.00;;;;;;;12.70;100.00;99209.78;5091835;28;20193;-77
2023/06/18 03:25:06;;;;;;;7.53;5.63;;;;;;;12.75;100.00;99212.56;5093707;28;20223;-77
2023/06/18 03:27:33;;;;;;;6.40;5.90;;;;;;;12.80;100.00;99207.25;5092395;28;20228;-77
2023/06/18 03:30:03;;;;;;;6.50;5.90;;;;;;;12.87;100.00;99204.41;5091040;28;20282;-78
2023/06/18 03:32:32;;;;;;;6.43;5.83;;;;;;;12.92;100.00;99208.00;5073030;28;20224;-77
2023/06/18 03:35:00;;;;;;;7.10;6.30;;;;;;;12.96;100.00;99203.78;5091058;28;20654;-77
2023/06/18 03:37:27;;;;;;;6.53;6.03;;;;;;;13.04;100.00;99210.59;5093115;28;20230;-78
2023/06/18 03:39:54;;;;;;;6.80;6.20;;;;;;;13.08;100.00;99212.56;5070970;28;20192;-78
2023/06/18 03:42:21;;;;;;;6.63;6.03;;;;;;;13.15;100.00;99210.56;5082557;28;20580;-77
2023/06/18 03:44:48;;;;;;;7.33;6.63;;;;;;;13.23;100.00;99218.19;5092594;28;20202;-77
2023/06/18 03:47:17;;;;;;;7.07;6.37;;;;;;;13.31;100.00;99214.25;5090706;28;20295;-78
2023/06/18 03:49:43;;;;;;;7.27;6.57;;;;;;;13.37;100.00;99220.53;5073425;28;20244;-77
2023/06/18 03:52:11;;;;;;;6.97;6.37;;;;;;;13.42;100.00;99212.53;5080260;28;20286;-77
2023/06/18 03:54:38;;;;;;;7.27;6.63;;;;;;;13.48;100.00;99222.31;5081059;28;20321;-77
2023/06/18 03:57:05;;;;;;;7.10;6.50;;;;;;;13.58;100.00;99217.06;5085940;28;20252;-78
2023/06/18 03:59:33;;;;;;;7.57;6.87;;;;;;;13.65;100.00;99223.91;5084586;28;20197;-76
2023/06/18 04:02:00;;;;;;;7.37;6.70;;;;;;;13.77;100.00;99220.25;5083840;28;20228;-77
2023/06/18 04:04:27;;;;;;;7.00;6.40;;;;;;;13.88;100.00;99224.72;5082464;28;20232;-77
2023/06/18 04:06:54;;;;;;;6.80;6.20;;;;;;;14.19;100.00;99212.41;5083653;28;20254;-78
2023/06/18 04:09:21;;;;;;;6.73;6.10;;;;;;;15.61;100.00;99226.06;5085991;28;20194;-77
2023/06/18 04:11:48;;;;;;;6.33;5.73;;;;;;;17.34;100.00;99230.78;5083203;28;20192;-77
2023/06/18 04:14:15;;;;;;;6.33;5.73;;;;;;;18.79;100.00;99216.91;5085553;28;20200;-77
2023/06/18 04:16:42;;;;;;;5.57;5.17;;;;;;;20.05;100.00;99219.47;5092785;28;20219;-78
2023/06/18 04:19:09;;;;;;;6.20;5.70;;;;;;;20.93;100.00;99222.28;5087225;28;20189;-76
2023/06/18 04:21:36;;;;;;;6.80;5.50;;;;;;;21.62;100.00;99217.84;5090264;28;20249;-77
2023/06/18 04:24:04;;;;;;;5.97;5.03;;;;;;;22.10;100.00;99210.09;5090632;28;20690;-77
2023/06/18 04:26:31;;;;;;;5.70;5.20;;;;;;;22.58;100.00;99218.59;5092548;28;20204;-76
2023/06/18 04:28:58;;;;;;;5.47;5.00;;;;;;;22.86;100.00;99216.59;5093895;28;20678;-77
2023/06/18 04:31:25;;;;;;;5.87;5.20;;;;;;;23.33;100.00;99220.56;5092587;28;20198;-77
2023/06/18 04:33:52;;;;;;;5.80;5.30;;;;;;;23.67;98.09;99220.78;5087638;28;20193;-77
2023/06/18 04:36:20;;;;;;;5.40;5.00;;;;;;;23.76;96.38;99225.47;5083963;28;20321;-77
2023/06/18 04:38:51;;;;;;;5.80;5.30;;;;;;;23.74;93.07;99225.00;5092027;28;20229;-77
2023/06/18 04:41:17;;;;;;;5.60;5.10;;;;;;;22.79;94.41;99227.13;5091285;28;20209;-78
2023/06/18 04:43:44;;;;;;;5.73;5.20;;;;;;;21.56;99.45;99227.19;5091535;28;20590;-76
2023/06/18 04:46:13;;;;;;;6.17;5.57;;;;;;;20.57;100.00;99241.09;5091881;28;20207;-77
2023/06/18 04:48:42;;;;;;;5.90;5.40;;;;;;;19.89;100.00;99237.84;5091787;28;20214;-78
2023/06/18 04:51:09;;;;;;;7.57;5.70;;;;;;;19.17;100.00;99241.56;5089085;28;20195;-77
2023/06/18 04:53:38;;;;;;;5.83;5.33;;;;;;;18.70;100.00;99245.72;5087395;28;20287;-77
2023/06/18 04:56:06;;;;;;;6.53;5.93;;;;;;;18.25;100.00;99249.47;5091752;28;20229;-77
2023/06/18 04:58:40;;;;;;;5.90;5.40;;;;;;;18.07;100.00;99252.81;5091500;28;20321;-76
2023/06/18 05:01:08;;;;;;;5.83;5.40;;;;;;;18.06;100.00;99250.41;5091850;28;20691;-77
2023/06/18 05:03:36;;;;;;;6.53;5.83;;;;;;;17.92;100.00;99253.66;5091207;28;20793;-77
2023/06/18 05:06:03;;;;;;;6.10;5.50;;;;;;;17.88;100.00;99249.91;5091625;28;20205;-78
2023/06/18 05:08:33;;;;;;;5.50;5.10;;;;;;;17.86;100.00;99246.66;5083417;28;20201;-77
2023/06/18 05:10:59;;;;;;;6.37;5.77;;;;;;;17.83;100.00;99251.81;5091642;28;20247;-77
2023/06/18 05:13:28;;;;;;;6.10;5.60;;;;;;;17.94;100.00;99251.50;5091537;28;20265;-76
2023/06/18 05:15:55;;;;;;;6.17;5.57;;;;;;;18.14;100.00;99249.81;5091576;28;20193;-77
2023/06/18 05:18:21;;;;;;;6.37;5.80;;;;;;;18.31;100.00;99251.06;5092531;28;20204;-77
2023/06/18 05:20:48;;;;;;;5.80;5.40;;;;;;;18.49;100.00;99242.28;5090337;28;20185;-77
2023/06/18 05:23:17;;;;;;;6.20;5.70;;;;;;;18.68;100.00;99247.91;5088423;28;20200;-76
2023/06/18 05:25:44;;;;;;;5.93;5.43;;;;;;;18.84;100.00;99254.88;5091186;28;20197;-77
2023/06/18 05:28:11;;;;;;;5.90;5.50;;;;;;;19.05;100.00;99250.06;5091211;28;20668;-77
2023/06/18 05:30:42;;;;;;;5.67;5.27;;;;;;;19.18;100.00;99249.41;5091340;28;20201;-78
2023/06/18 05:33:09;;;;;;;6.00;5.33;;;;;;;19.20;100.00;99251.84;5092320;28;20613;-77
2023/06/18 05:35:37;;;;;;;6.30;5.80;;;;;;;19.33;100.00;99254.72;5089884;28;20248;-77
2023/06/18 05:38:04;;;;;;;5.73;5.10;;;;;;;19.47;100.00;99251.34;5088314;28;20218;-77
2023/06/18 05:40:31;;;;;;;5.67;5.17;;;;;;;19.65;100.00;99256.06;5088010;28;20222;-77
2023/06/18 05:43:01;;;;;;;6.07;5.43;;;;;;;19.86;100.00;99251.22;5083316;28;20256;-77
2023/06/18 05:45:34;;;;;;;6.27;5.77;;;;;;;19.97;100.00;99256.25;5084675;28;20243;-77
2023/06/18 05:48:01;;;;;;;6.27;5.70;;;;;;;19.95;100.00;99257.66;5086483;28;20649;-77
2023/06/18 05:50:41;;;;;;;6.97;5.27;;;;;;;20.07;100.00;99260.75;5089334;28;20204;-77
2023/06/18 05:53:08;;;;;;;6.13;5.53;;;;;;;20.22;100.00;99264.09;5090674;28;20198;-77
2023/06/18 05:55:35;;;;;;;6.33;5.73;;;;;;;20.35;100.00;99259.06;5091718;28;20194;-76
2023/06/18 05:58:02;;;;;;;6.63;5.87;;;;;;;20.42;100.00;99265.78;5085253;28;20227;-77
2023/06/18 06:00:30;;;;;;;7.07;5.87;;;;;;;20.55;100.00;99272.41;5090762;28;20198;-77
2023/06/18 06:02:57;;;;;;;6.10;5.60;;;;;;;20.71;100.00;99256.69;5090157;28;20233;-76
2023/06/18 06:05:25;;;;;;;6.10;5.60;;;;;;;20.82;100.00;99263.56;5084169;28;20207;-78
2023/06/18 06:07:52;;;;;;;6.37;5.80;;;;;;;20.85;100.00;99263.81;5091093;28;20196;-78
2023/06/18 06:10:21;;;;;;;5.50;5.10;;;;;;;20.92;100.00;99266.16;5080024;28;20207;-76
2023/06/18 06:12:49;;;;;;;6.40;5.90;;;;;;;21.05;100.00;99268.13;5090377;28;20196;-76
2023/06/18 06:15:16;;;;;;;5.93;5.43;;;;;;;21.21;100.00;99274.97;5088403;28;20222;-76
2023/06/18 06:17:43;;;;;;;6.00;5.50;;;;;;;21.34;100.00;99273.41;5088015;28;20293;-76
2023/06/18 06:20:11;;;;;;;6.47;5.73;;;;;;;21.43;100.00;99266.97;5089300;28;20200;-76
2023/06/18 06:22:38;;;;;;;5.97;5.47;;;;;;;21.44;100.00;99267.78;5088417;28;20173;-76
2023/06/18 06:25:06;;;;;;;6.23;5.73;;;;;;;21.22;100.00;99271.16;5076798;28;20246;-77
2023/06/18 06:27:35;;;;;;;7.57;6.03;;;;;;;21.39;100.00;99270.59;5086724;28;20199;-76
2023/06/18 06:30:03;;;;;;;5.87;5.37;;;;;;;21.49;100.00;99265.78;5088869;28;20605;-76
2023/06/18 06:32:29;;;;;;;5.87;5.37;;;;;;;21.60;100.00;99265.59;5090249;28;20207;-75
2023/06/18 06:34:56;;;;;;;6.28;5.75;;;;;;;21.76;100.00;99261.47;5078469;28;20199;-76
2023/06/18 06:37:23;;;;;;;5.82;5.38;;;;;;;21.86;100.00;99261.28;5065871;28;20227;-77
2023/06/18 06:39:50;;;;;;;5.90;5.43;;;;;;;22.11;100.00;99260.81;5069029;28;20206;-76
2023/06/18 06:42:17;;;;;;;6.07;5.50;;;;;;;22.32;100.00;99255.72;5079650;28;20208;-76
2023/06/18 06:44:46;;;;;;;6.10;5.60;;;;;;;22.44;100.00;99266.94;5077145;28;20192;-77
2023/06/18 06:47:29;;;;;;;6.00;5.50;;;;;;;22.57;100.00;99255.19;5073209;28;20196;-76
2023/06/18 06:50:29;;;;;;;6.25;5.65;;;;;;;22.72;100.00;99257.56;5038482;28;20192;-76
2023/06/18 06:53:04;;;;;;;5.80;5.30;;;;;;;22.91;100.00;99254.69;5063485;28;20227;-77
2023/06/18 06:55:32;;;;;;;5.72;5.32;;;;;;;23.07;100.00;99247.75;5075858;28;20188;-76
2023/06/18 06:57:59;;;;;;;6.28;5.78;;;;;;;23.12;100.00;99246.81;5066944;28;20311;-77
2023/06/18 07:00:26;;;;;;;6.30;5.80;;;;;;;23.29;100.00;99255.13;5071425;28;20682;-77
2023/06/18 07:02:52;;;;;;;6.10;5.70;;;;;;;23.45;100.00;99244.63;5073279;28;20228;-77
2023/06/18 07:05:19;;;;;;;6.68;6.13;;;;;;;23.62;100.00;99245.53;5073733;28;20223;-76
2023/06/18 07:07:46;;;;;;;6.22;5.72;;;;;;;23.59;100.00;99254.38;5074365;28;20197;-79
2023/06/18 07:10:13;;;;;;;6.45;5.80;;;;;;;23.73;100.00;99250.72;5069108;28;20283;-77
2023/06/18 07:12:40;;;;;;;4.93;4.60;;;;;;;23.92;95.68;99249.38;5083510;28;20202;-77
2023/06/18 07:15:07;;;;;;;5.22;4.80;;;;;;;24.03;93.17;99247.13;5089722;28;20196;-78
2023/06/18 07:17:33;;;;;;;5.93;5.43;;;;;;;24.07;92.01;99248.13;5080975;28;20203;-77
2023/06/18 07:20:00;;;;;;;5.43;4.85;;;;;;;24.17;87.26;99245.09;5075995;28;20247;-76
2023/06/18 07:22:28;;;;;;;5.50;5.10;;;;;;;24.21;86.98;99245.31;5082653;28;20206;-76
2023/06/18 07:24:56;;;;;;;5.80;5.30;;;;;;;24.28;85.85;99245.63;5089224;28;20240;-76
2023/06/18 07:27:24;;;;;;;5.40;4.90;;;;;;;24.43;84.20;99256.13;5094446;28;20192;-76
2023/06/18 07:29:51;;;;;;;6.78;5.80;;;;;;;24.55;84.89;99259.03;5094257;28;20196;-76
2023/06/18 07:32:17;;;;;;;6.70;6.20;;;;;;;24.64;83.97;99259.03;5094019;28;20218;-77
2023/06/18 07:34:44;;;;;;;5.88;5.38;;;;;;;24.67;83.38;99251.00;5094102;28;20190;-80
2023/06/18 07:37:11;;;;;;;6.65;6.05;;;;;;;24.73;83.93;99265.34;5082409;28;20192;-77
2023/06/18 07:39:38;;;;;;;5.97;5.50;;;;;;;24.87;83.31;99261.34;5094172;28;20252;-80
2023/06/18 07:42:05;;;;;;;5.90;5.35;;;;;;;24.90;80.57;99260.72;5094423;28;20205;-77
2023/06/18 07:44:31;;;;;;;6.05;5.45;;;;;;;24.99;78.42;99256.03;5083236;28;20568;-76
2023/06/18 07:47:00;;;;;;;5.55;5.15;;;;;;;25.14;78.68;99251.19;5092773;28;20233;-78
2023/06/18 07:49:27;;;;;;;5.95;5.45;;;;;;;25.21;79.40;99252.28;5091811;28;20550;-79
2023/06/18 07:51:54;;;;;;;6.00;5.50;;;;;;;25.19;76.58;99251.81;5093781;28;20715;-79
2023/06/18 07:54:21;;;;;;;5.60;5.20;;;;;;;25.26;75.81;99243.09;5093615;28;20441;-78
2023/06/18 07:56:48;;;;;;;5.70;5.30;;;;;;;25.33;76.31;99260.69;5093472;28;20265;-80
2023/06/18 07:59:14;;;;;;;5.68;5.28;;;;;;;25.37;75.01;99255.34;5088403;28;20219;-79
2023/06/18 08:01:41;;;;;;;6.18;5.57;;;;;;;25.46;73.46;99258.06;5090577;28;20320;-77
2023/06/18 08:04:08;;;;;;;6.20;5.70;;;;;;;25.52;77.21;99262.25;5101190;28;20309;-77
2023/06/18 08:06:35;;;;;;;6.28;5.57;;;;;;;25.42;74.13;99252.44;5105903;28;20194;-78
2023/06/18 08:09:02;;;;;;;5.95;5.32;;;;;;;25.43;75.94;99249.34;5114046;28;20222;-78
2023/06/18 08:11:29;;;;;;;5.40;5.00;;;;;;;25.57;76.53;99249.16;5114337;28;20191;-77
2023/06/18 08:13:55;;;;;;;6.82;6.22;;;;;;;25.69;71.97;99256.72;5111921;28;20661;-76
2023/06/18 08:16:23;;;;;;;5.47;5.07;;;;;;;25.75;70.21;99253.50;5113933;28;20249;-79
2023/06/18 08:18:52;;;;;;;5.57;5.18;;;;;;;25.76;69.66;99257.00;5083255;28;20216;-78
2023/06/18 08:21:19;;;;;;;6.00;5.28;;;;;;;26.00;72.22;99248.19;5113855;28;20244;-77
2023/06/18 08:23:46;;;;;;;8.98;8.18;;;;;;;26.08;72.73;99256.38;5106522;28;20230;-77
2023/06/18 08:26:14;;;;;;;8.13;7.50;;;;;;;26.23;70.44;99250.38;5092463;28;20316;-79
2023/06/18 08:28:41;;;;;;;7.18;6.47;;;;;;;26.21;70.60;99249.09;5109980;28;20658;-78
2023/06/18 08:31:08;;;;;;;6.57;6.00;;;;;;;26.38;70.77;99250.94;5112556;28;20654;-78
2023/06/18 08:33:34;;;;;;;6.03;5.43;;;;;;;26.45;71.04;99246.53;5108819;28;20268;-76
2023/06/18 08:36:01;;;;;;;5.50;5.07;;;;;;;26.26;70.73;99249.72;5113361;28;20199;-77
2023/06/18 08:38:28;;;;;;;5.97;5.47;;;;;;;26.39;73.86;99247.03;5113172;28;20261;-78
2023/06/18 08:40:55;;;;;;;6.60;6.00;;;;;;;26.40;71.46;99249.47;5107983;28;20288;-77
2023/06/18 08:43:26;;;;;;;6.95;6.45;;;;;;;26.64;72.91;99235.09;5108421;28;20210;-80
2023/06/18 08:45:53;;;;;;;7.00;6.40;;;;;;;26.68;70.48;99239.56;5105448;28;20196;-77
2023/06/18 08:48:25;;;;;;;8.52;7.82;;;;;;;26.85;68.75;99246.88;5099013;28;20219;-79
2023/06/18 08:51:03;;;;;;;6.13;5.63;;;;;;;26.84;68.59;99236.19;5103031;28;20227;-77
2023/06/18 08:53:55;;;;;;;6.60;5.95;;;;;;;26.52;67.32;99240.50;5084091;28;20183;-77
2023/06/18 08:56:22;;;;;;;6.45;5.95;;;;;;;26.27;69.16;99234.81;5082548;28;20634;-79
2023/06/18 08:58:51;;;;;;;6.07;5.50;;;;;;;26.48;69.40;99232.13;5093255;28;20220;-79
2023/06/18 09:01:18;;;;;;;6.03;5.63;;;;;;;26.60;69.21;99231.38;5104867;28;20195;-77
2023/06/18 09:03:47;;;;;;;7.10;6.57;;;;;;;26.67;70.19;99235.22;5095267;28;20277;-79
2023/06/18 09:06:14;;;;;;;7.65;6.95;;;;;;;26.88;69.45;99232.47;5095696;28;20291;-78
2023/06/18 09:08:41;;;;;;;5.75;5.25;;;;;;;26.85;68.50;99233.13;5092673;28;20211;-77
2023/06/18 09:11:10;;;;;;;6.03;5.45;;;;;;;26.97;68.72;99230.44;5095288;28;20291;-79
2023/06/18 09:13:41;;;;;;;9.40;8.63;;;;;;;26.90;67.45;99234.91;5091474;28;20659;-79
2023/06/18 09:16:08;;;;;;;7.03;6.45;;;;;;;27.21;66.27;99231.69;5108241;28;20199;-77
2023/06/18 09:18:35;;;;;;;7.65;6.95;;;;;;;27.29;66.29;99228.06;5111251;28;20204;-79
2023/06/18 09:21:03;;;;;;;11.48;10.27;;;;;;;27.32;65.17;99228.19;5093664;28;20192;-77
2023/06/18 09:23:30;;;;;;;6.68;6.18;;;;;;;27.40;64.92;99215.47;5112491;28;20195;-79
2023/06/18 09:25:57;;;;;;;6.28;5.78;;;;;;;26.74;65.32;99229.16;5112614;28;20666;-79
2023/06/18 09:28:26;;;;;;;6.88;6.18;;;;;;;26.19;66.01;99224.69;5109139;28;20196;-80
2023/06/18 09:30:56;;;;;;;6.50;5.93;;;;;;;26.23;66.75;99230.34;5105180;28;20194;-79
2023/06/18 09:33:27;;;;;;;6.65;6.13;;;;;;;26.25;66.13;99231.63;5112564;28;20274;-80
2023/06/18 09:36:08;;;;;;;5.70;5.30;;;;;;;26.70;66.61;99228.22;5112372;28;20286;-80
2023/06/18 09:38:42;;;;;;;6.82;5.55;;;;;;;26.86;65.06;99234.78;5086920;28;20272;-78
2023/06/18 09:41:14;;;;;;;5.90;5.30;;;;;;;27.17;67.33;99232.38;5106699;28;20184;-78
2023/06/18 09:43:43;;;;;;;6.22;5.63;;;;;;;26.66;67.25;99230.03;5106019;28;20240;-78
2023/06/18 09:46:11;;;;;;;6.22;5.63;;;;;;;26.65;65.89;99229.25;5099633;28;20197;-78
2023/06/18 09:48:41;;;;;;;6.20;5.53;;;;;;;27.03;63.96;99222.81;5090801;28;20200;-79
2023/06/18 09:51:08;;;;;;;6.78;5.50;;;;;;;27.03;63.41;99220.84;5111879;28;20658;-76
2023/06/18 09:53:35;;;;;;;6.43;5.80;;;;;;;26.56;67.46;99223.00;5093857;28;20577;-76
2023/06/18 09:56:12;;;;;;;5.90;5.50;;;;;;;26.55;68.83;99220.63;5109649;28;20188;-78
2023/06/18 09:58:47;;;;;;;6.85;5.43;;;;;;;26.74;64.93;99220.91;5102954;28;20211;-77
2023/06/18 10:01:16;;;;;;;5.75;5.35;;;;;;;27.13;66.19;99223.19;5091932;28;20292;-78
2023/06/18 10:03:44;;;;;;;5.68;5.20;;;;;;;26.53;65.12;99218.19;5109274;28;20231;-77
2023/06/18 10:06:16;;;;;;;6.30;5.78;;;;;;;26.04;65.87;99211.53;5109294;28;20255;-76
2023/06/18 10:08:45;;;;;;;6.10;5.53;;;;;;;26.87;68.79;99217.13;5112125;28;20614;-77
2023/06/18 10:11:13;;;;;;;5.90;5.40;;;;;;;27.37;66.91;99216.16;5105997;28;20192;-77
2023/06/18 10:13:49;;;;;;;6.07;5.68;;;;;;;27.32;62.50;99221.88;5111875;28;20184;-77
2023/06/18 10:16:18;;;;;;;6.13;5.63;;;;;;;27.53;62.43;99209.66;5111142;28;20282;-77
2023/06/18 10:19:15;;;;;;;6.93;5.88;;;;;;;27.39;64.24;99213.88;5107610;28;20215;-77
2023/06/18 10:21:53;;;;;;;6.20;5.70;;;;;;;27.57;64.41;99213.38;5085672;28;20560;-80
2023/06/18 10:24:21;;;;;;;6.80;5.22;;;;;;;27.80;64.25;99204.66;5108465;28;20183;-78
2023/06/18 10:26:48;;;;;;;6.50;5.90;;;;;;;28.06;62.15;99207.06;5092178;28;20278;-80
2023/06/18 10:29:15;;;;;;;6.75;6.07;;;;;;;28.15;62.12;99205.81;5090665;28;20241;-80
2023/06/18 10:31:42;;;;;;;5.90;5.50;;;;;;;27.67;61.07;99205.81;5111889;28;20190;-78
2023/06/18 10:34:10;;;;;;;5.78;5.28;;;;;;;27.72;65.96;99211.06;5108513;28;20271;-80
2023/06/18 10:36:37;;;;;;;6.07;5.50;;;;;;;28.09;64.26;99203.63;5086974;28;20192;-80
2023/06/18 10:39:04;;;;;;;6.63;5.93;;;;;;;28.29;65.84;99205.47;5105115;28;20543;-79
2023/06/18 10:41:44;;;;;;;6.20;5.72;;;;;;;28.12;63.01;99192.75;5100397;28;20619;-81
2023/06/18 10:44:10;;;;;;;6.38;5.88;;;;;;;28.51;63.31;99204.16;5087913;28;20192;-77
2023/06/18 10:46:37;;;;;;;7.82;7.22;;;;;;;28.41;62.25;99202.69;5108428;28;20195;-76
2023/06/18 10:49:17;;;;;;;6.38;5.88;;;;;;;28.72;63.80;99202.06;5105723;28;20193;-79
2023/06/18 10:51:56;;;;;;;6.25;5.75;;;;;;;27.94;60.59;99210.63;5101432;28;20203;-79
2023/06/18 10:54:30;;;;;;;7.88;7.18;;;;;;;28.34;61.56;99196.97;5107757;28;20228;-79
2023/06/18 10:56:58;;;;;;;6.20;5.60;;;;;;;28.45;62.09;99200.84;5115124;28;20226;-78
2023/06/18 10:59:57;;;;;;;6.00;5.40;;;;;;;28.90;60.61;99203.38;5115310;28;20221;-78
2023/06/18 11:02:34;;;;;;;6.97;6.25;;;;;;;29.21;60.79;99202.63;5047586;28;20242;-77
2023/06/18 11:05:01;;;;;;;6.70;6.20;;;;;;;29.16;59.35;99197.41;5115116;28;20296;-80
2023/06/18 11:07:30;;;;;;;5.95;5.43;;;;;;;28.21;61.53;99193.44;5094518;28;20191;-77
2023/06/18 11:09:59;;;;;;;6.25;5.85;;;;;;;28.78;60.78;99203.41;5097265;28;20587;-77
2023/06/18 11:12:31;;;;;;;6.00;5.50;;;;;;;29.11;58.69;99200.41;5115226;28;20204;-79
2023/06/18 11:15:27;;;;;;;6.05;5.55;;;;;;;29.51;58.07;99195.59;5112255;28;20195;-78
2023/06/18 11:17:55;;;;;;;6.38;5.88;;;;;;;29.30;57.08;99187.53;5086189;28;20287;-79
2023/06/18 11:20:23;;;;;;;6.70;6.00;;;;;;;29.44;57.79;99180.81;5108735;28;20227;-77
2023/06/18 11:22:57;;;;;;;6.45;5.90;;;;;;;29.55;56.40;99177.16;5113891;28;20196;-79
2023/06/18 11:25:25;;;;;;;5.90;5.43;;;;;;;29.72;55.15;99182.31;5095158;28;20192;-79
2023/06/18 11:27:54;;;;;;;6.00;5.43;;;;;;;29.89;55.96;99170.13;5114930;28;20210;-79
2023/06/18 11:30:21;;;;;;;5.82;5.38;;;;;;;28.98;55.32;99172.06;5096737;28;20256;-79
2023/06/18 11:32:48;;;;;;;6.05;5.55;;;;;;;29.80;54.44;99161.22;5111267;28;20203;-80
2023/06/18 11:35:15;;;;;;;6.05;5.40;;;;;;;29.33;55.59;99172.25;5088606;28;20559;-76
2023/06/18 11:37:43;;;;;;;6.20;5.68;;;;;;;29.93;55.98;99161.94;5110715;28;20192;-77